sensor_id;sensor_type;location;lat;lon;timestamp;P1;durP1;ratioP1;P2;durP2;ratioP2
33094;SDS011;19459;53.044;8.910;2023-04-06T00:02:11;19.90;;;10.32;;
33094;SDS011;19459;53.044;8.910;2023-04-06T00:04:37;19.40;;;11.15;;
33094;SDS011;19459;53.044;8.910;2023-04-06T00:07:03;19.70;;;11.30;;
33094;SDS011;19459;53.044;8.910;2023-04-06T00:09:29;17.25;;;11.15;;
33094;SDS011;19459;53.044;8.910;2023-04-06T00:11:55;16.80;;;11.25;;
33094;SDS011;19459;53.044;8.910;2023-04-06T00:14:21;18.85;;;11.43;;
33094;SDS011;19459;53.044;8.910;2023-04-06T00:16:47;18.27;;;11.32;;
33094;SDS011;19459;53.044;8.910;2023-04-06T00:19:12;17.90;;;10.93;;
33094;SDS011;19459;53.044;8.910;2023-04-06T00:21:38;19.35;;;12.13;;
33094;SDS011;19459;53.044;8.910;2023-04-06T00:24:04;19.63;;;11.05;;
33094;SDS011;19459;53.044;8.910;2023-04-06T00:26:30;19.88;;;11.88;;
33094;SDS011;19459;53.044;8.910;2023-04-06T00:28:56;15.23;;;10.95;;
33094;SDS011;19459;53.044;8.910;2023-04-06T00:31:23;19.80;;;11.13;;
33094;SDS011;19459;53.044;8.910;2023-04-06T00:33:49;17.33;;;10.68;;
33094;SDS011;19459;53.044;8.910;2023-04-06T00:36:15;20.27;;;12.10;;
33094;SDS011;19459;53.044;8.910;2023-04-06T00:38:41;22.83;;;13.32;;
33094;SDS011;19459;53.044;8.910;2023-04-06T00:41:07;21.77;;;13.07;;
33094;SDS011;19459;53.044;8.910;2023-04-06T00:43:32;20.55;;;13.38;;
33094;SDS011;19459;53.044;8.910;2023-04-06T00:45:58;21.85;;;13.02;;
33094;SDS011;19459;53.044;8.910;2023-04-06T00:48:24;23.20;;;13.25;;
33094;SDS011;19459;53.044;8.910;2023-04-06T00:50:50;20.65;;;12.60;;
33094;SDS011;19459;53.044;8.910;2023-04-06T00:53:16;19.35;;;11.35;;
33094;SDS011;19459;53.044;8.910;2023-04-06T00:55:42;20.23;;;13.32;;
33094;SDS011;19459;53.044;8.910;2023-04-06T00:58:08;20.05;;;12.57;;
33094;SDS011;19459;53.044;8.910;2023-04-06T01:00:34;21.00;;;12.07;;
33094;SDS011;19459;53.044;8.910;2023-04-06T01:03:00;19.50;;;12.68;;
33094;SDS011;19459;53.044;8.910;2023-04-06T01:05:26;21.52;;;12.20;;
33094;SDS011;19459;53.044;8.910;2023-04-06T01:07:52;21.27;;;13.15;;
33094;SDS011;19459;53.044;8.910;2023-04-06T01:10:24;20.42;;;11.43;;
33094;SDS011;19459;53.044;8.910;2023-04-06T01:12:51;20.27;;;12.52;;
33094;SDS011;19459;53.044;8.910;2023-04-06T01:15:17;22.33;;;14.00;;
33094;SDS011;19459;53.044;8.910;2023-04-06T01:17:44;20.63;;;13.73;;
33094;SDS011;19459;53.044;8.910;2023-04-06T01:20:10;24.08;;;13.27;;
33094;SDS011;19459;53.044;8.910;2023-04-06T01:22:36;18.23;;;13.07;;
33094;SDS011;19459;53.044;8.910;2023-04-06T01:25:02;20.05;;;12.55;;
33094;SDS011;19459;53.044;8.910;2023-04-06T01:27:28;20.83;;;13.05;;
33094;SDS011;19459;53.044;8.910;2023-04-06T01:29:54;20.55;;;12.75;;
33094;SDS011;19459;53.044;8.910;2023-04-06T01:32:21;22.52;;;13.02;;
33094;SDS011;19459;53.044;8.910;2023-04-06T01:34:47;20.85;;;13.20;;
33094;SDS011;19459;53.044;8.910;2023-04-06T01:37:13;18.58;;;12.63;;
33094;SDS011;19459;53.044;8.910;2023-04-06T01:39:38;24.20;;;13.40;;
33094;SDS011;19459;53.044;8.910;2023-04-06T01:42:04;23.88;;;12.52;;
33094;SDS011;19459;53.044;8.910;2023-04-06T01:44:30;24.55;;;14.10;;
33094;SDS011;19459;53.044;8.910;2023-04-06T01:46:56;20.10;;;13.02;;
33094;SDS011;19459;53.044;8.910;2023-04-06T01:49:22;26.55;;;14.90;;
33094;SDS011;19459;53.044;8.910;2023-04-06T01:51:48;21.33;;;12.93;;
33094;SDS011;19459;53.044;8.910;2023-04-06T01:54:14;24.65;;;13.20;;
33094;SDS011;19459;53.044;8.910;2023-04-06T01:56:39;21.40;;;14.60;;
33094;SDS011;19459;53.044;8.910;2023-04-06T01:59:05;17.67;;;12.98;;
33094;SDS011;19459;53.044;8.910;2023-04-06T02:01:31;20.48;;;13.43;;
33094;SDS011;19459;53.044;8.910;2023-04-06T02:03:57;20.85;;;12.98;;
33094;SDS011;19459;53.044;8.910;2023-04-06T02:06:23;25.83;;;14.85;;
33094;SDS011;19459;53.044;8.910;2023-04-06T02:08:49;21.83;;;13.52;;
33094;SDS011;19459;53.044;8.910;2023-04-06T02:11:15;23.30;;;14.27;;
33094;SDS011;19459;53.044;8.910;2023-04-06T02:13:41;21.40;;;13.18;;
33094;SDS011;19459;53.044;8.910;2023-04-06T02:16:07;23.70;;;12.85;;
33094;SDS011;19459;53.044;8.910;2023-04-06T02:18:32;28.13;;;14.20;;
33094;SDS011;19459;53.044;8.910;2023-04-06T02:20:58;23.30;;;14.43;;
33094;SDS011;19459;53.044;8.910;2023-04-06T02:23:24;24.88;;;13.60;;
33094;SDS011;19459;53.044;8.910;2023-04-06T02:25:50;25.88;;;13.60;;
33094;SDS011;19459;53.044;8.910;2023-04-06T02:28:16;22.17;;;13.68;;
33094;SDS011;19459;53.044;8.910;2023-04-06T02:30:42;20.85;;;13.70;;
33094;SDS011;19459;53.044;8.910;2023-04-06T02:33:07;23.92;;;14.05;;
33094;SDS011;19459;53.044;8.910;2023-04-06T02:35:33;20.33;;;12.38;;
33094;SDS011;19459;53.044;8.910;2023-04-06T02:37:59;19.42;;;13.13;;
33094;SDS011;19459;53.044;8.910;2023-04-06T02:40:25;19.95;;;12.13;;
33094;SDS011;19459;53.044;8.910;2023-04-06T02:42:50;24.13;;;13.95;;
33094;SDS011;19459;53.044;8.910;2023-04-06T02:45:16;20.90;;;14.15;;
33094;SDS011;19459;53.044;8.910;2023-04-06T02:47:42;24.15;;;13.60;;
33094;SDS011;19459;53.044;8.910;2023-04-06T02:50:08;24.13;;;13.95;;
33094;SDS011;19459;53.044;8.910;2023-04-06T02:52:35;24.45;;;13.68;;
33094;SDS011;19459;53.044;8.910;2023-04-06T02:55:00;23.92;;;13.45;;
33094;SDS011;19459;53.044;8.910;2023-04-06T02:57:26;21.55;;;13.63;;
33094;SDS011;19459;53.044;8.910;2023-04-06T02:59:52;24.25;;;14.18;;
33094;SDS011;19459;53.044;8.910;2023-04-06T03:02:18;20.30;;;13.18;;
33094;SDS011;19459;53.044;8.910;2023-04-06T03:04:44;19.23;;;12.75;;
33094;SDS011;19459;53.044;8.910;2023-04-06T03:07:10;26.80;;;14.02;;
33094;SDS011;19459;53.044;8.910;2023-04-06T03:09:38;22.52;;;13.82;;
33094;SDS011;19459;53.044;8.910;2023-04-06T03:12:05;22.05;;;14.27;;
33094;SDS011;19459;53.044;8.910;2023-04-06T03:14:31;25.25;;;12.48;;
33094;SDS011;19459;53.044;8.910;2023-04-06T03:16:57;21.10;;;12.90;;
33094;SDS011;19459;53.044;8.910;2023-04-06T03:19:23;24.42;;;12.75;;
33094;SDS011;19459;53.044;8.910;2023-04-06T03:21:48;21.15;;;13.90;;
33094;SDS011;19459;53.044;8.910;2023-04-06T03:24:14;23.88;;;12.25;;
33094;SDS011;19459;53.044;8.910;2023-04-06T03:26:40;21.58;;;12.77;;
33094;SDS011;19459;53.044;8.910;2023-04-06T03:29:06;20.73;;;12.73;;
33094;SDS011;19459;53.044;8.910;2023-04-06T03:31:32;22.55;;;14.55;;
33094;SDS011;19459;53.044;8.910;2023-04-06T03:33:58;23.80;;;13.63;;
33094;SDS011;19459;53.044;8.910;2023-04-06T03:36:24;19.80;;;13.95;;
33094;SDS011;19459;53.044;8.910;2023-04-06T03:38:51;20.85;;;13.73;;
33094;SDS011;19459;53.044;8.910;2023-04-06T03:41:18;20.70;;;13.88;;
33094;SDS011;19459;53.044;8.910;2023-04-06T03:43:44;23.95;;;14.63;;
33094;SDS011;19459;53.044;8.910;2023-04-06T03:46:10;22.73;;;14.20;;
33094;SDS011;19459;53.044;8.910;2023-04-06T03:48:36;20.42;;;13.93;;
33094;SDS011;19459;53.044;8.910;2023-04-06T03:51:02;21.48;;;14.73;;
33094;SDS011;19459;53.044;8.910;2023-04-06T03:53:28;20.25;;;14.68;;
33094;SDS011;19459;53.044;8.910;2023-04-06T03:55:54;21.40;;;15.85;;
33094;SDS011;19459;53.044;8.910;2023-04-06T03:58:20;20.83;;;14.23;;
33094;SDS011;19459;53.044;8.910;2023-04-06T04:00:46;23.02;;;15.13;;
33094;SDS011;19459;53.044;8.910;2023-04-06T04:03:12;26.15;;;15.52;;
33094;SDS011;19459;53.044;8.910;2023-04-06T04:05:38;38.85;;;19.33;;
33094;SDS011;19459;53.044;8.910;2023-04-06T04:08:03;25.02;;;16.23;;
33094;SDS011;19459;53.044;8.910;2023-04-06T04:10:29;24.80;;;15.57;;
33094;SDS011;19459;53.044;8.910;2023-04-06T04:12:58;25.15;;;15.82;;
33094;SDS011;19459;53.044;8.910;2023-04-06T04:15:24;22.30;;;14.98;;
33094;SDS011;19459;53.044;8.910;2023-04-06T04:17:50;23.25;;;14.98;;
33094;SDS011;19459;53.044;8.910;2023-04-06T04:20:16;25.55;;;15.07;;
33094;SDS011;19459;53.044;8.910;2023-04-06T04:22:42;30.02;;;16.40;;
33094;SDS011;19459;53.044;8.910;2023-04-06T04:25:08;25.20;;;15.93;;
33094;SDS011;19459;53.044;8.910;2023-04-06T04:27:35;27.85;;;16.52;;
33094;SDS011;19459;53.044;8.910;2023-04-06T04:30:01;23.52;;;15.82;;
33094;SDS011;19459;53.044;8.910;2023-04-06T04:32:27;24.33;;;16.55;;
33094;SDS011;19459;53.044;8.910;2023-04-06T04:34:53;25.75;;;16.42;;
33094;SDS011;19459;53.044;8.910;2023-04-06T04:37:19;26.67;;;16.92;;
33094;SDS011;19459;53.044;8.910;2023-04-06T04:39:45;24.10;;;16.85;;
33094;SDS011;19459;53.044;8.910;2023-04-06T04:42:11;26.65;;;15.82;;
33094;SDS011;19459;53.044;8.910;2023-04-06T04:44:37;28.08;;;16.23;;
33094;SDS011;19459;53.044;8.910;2023-04-06T04:47:03;31.45;;;18.08;;
33094;SDS011;19459;53.044;8.910;2023-04-06T04:49:28;29.55;;;16.83;;
33094;SDS011;19459;53.044;8.910;2023-04-06T04:51:54;30.02;;;17.05;;
33094;SDS011;19459;53.044;8.910;2023-04-06T04:54:20;28.35;;;18.27;;
33094;SDS011;19459;53.044;8.910;2023-04-06T04:56:46;26.70;;;17.60;;
33094;SDS011;19459;53.044;8.910;2023-04-06T04:59:12;32.70;;;18.20;;
33094;SDS011;19459;53.044;8.910;2023-04-06T05:01:38;30.17;;;17.10;;
33094;SDS011;19459;53.044;8.910;2023-04-06T05:04:04;28.05;;;17.98;;
33094;SDS011;19459;53.044;8.910;2023-04-06T05:06:29;25.50;;;16.55;;
33094;SDS011;19459;53.044;8.910;2023-04-06T05:08:55;23.02;;;15.77;;
33094;SDS011;19459;53.044;8.910;2023-04-06T05:11:21;24.30;;;15.85;;
33094;SDS011;19459;53.044;8.910;2023-04-06T05:13:47;25.88;;;16.08;;
33094;SDS011;19459;53.044;8.910;2023-04-06T05:16:13;24.02;;;15.60;;
33094;SDS011;19459;53.044;8.910;2023-04-06T05:18:39;20.33;;;14.52;;
33094;SDS011;19459;53.044;8.910;2023-04-06T05:21:05;25.63;;;15.70;;
33094;SDS011;19459;53.044;8.910;2023-04-06T05:23:31;22.30;;;14.38;;
33094;SDS011;19459;53.044;8.910;2023-04-06T05:25:57;22.27;;;14.45;;
33094;SDS011;19459;53.044;8.910;2023-04-06T05:28:22;23.73;;;13.57;;
33094;SDS011;19459;53.044;8.910;2023-04-06T05:30:48;22.50;;;14.25;;
33094;SDS011;19459;53.044;8.910;2023-04-06T05:33:14;23.10;;;14.20;;
33094;SDS011;19459;53.044;8.910;2023-04-06T05:35:40;20.95;;;14.80;;
33094;SDS011;19459;53.044;8.910;2023-04-06T05:38:07;19.17;;;13.70;;
33094;SDS011;19459;53.044;8.910;2023-04-06T05:40:35;22.38;;;14.38;;
33094;SDS011;19459;53.044;8.910;2023-04-06T05:43:03;23.30;;;14.10;;
33094;SDS011;19459;53.044;8.910;2023-04-06T05:45:29;20.52;;;12.88;;
33094;SDS011;19459;53.044;8.910;2023-04-06T05:47:55;20.73;;;12.38;;
33094;SDS011;19459;53.044;8.910;2023-04-06T05:50:21;22.30;;;12.38;;
33094;SDS011;19459;53.044;8.910;2023-04-06T05:52:47;17.60;;;11.43;;
33094;SDS011;19459;53.044;8.910;2023-04-06T05:55:13;16.88;;;11.65;;
33094;SDS011;19459;53.044;8.910;2023-04-06T05:57:39;20.27;;;12.55;;
33094;SDS011;19459;53.044;8.910;2023-04-06T06:00:06;20.38;;;12.07;;
33094;SDS011;19459;53.044;8.910;2023-04-06T06:02:34;19.50;;;11.57;;
33094;SDS011;19459;53.044;8.910;2023-04-06T06:04:59;18.88;;;11.98;;
33094;SDS011;19459;53.044;8.910;2023-04-06T06:07:25;16.20;;;11.07;;
33094;SDS011;19459;53.044;8.910;2023-04-06T06:09:51;18.98;;;11.02;;
33094;SDS011;19459;53.044;8.910;2023-04-06T06:12:17;15.32;;;10.23;;
33094;SDS011;19459;53.044;8.910;2023-04-06T06:14:43;14.43;;;10.98;;
33094;SDS011;19459;53.044;8.910;2023-04-06T06:17:09;19.75;;;13.07;;
33094;SDS011;19459;53.044;8.910;2023-04-06T06:19:35;16.13;;;12.18;;
33094;SDS011;19459;53.044;8.910;2023-04-06T06:22:00;16.15;;;11.80;;
33094;SDS011;19459;53.044;8.910;2023-04-06T06:24:27;17.85;;;11.65;;
33094;SDS011;19459;53.044;8.910;2023-04-06T06:26:53;19.17;;;12.00;;
33094;SDS011;19459;53.044;8.910;2023-04-06T06:29:19;21.92;;;12.02;;
33094;SDS011;19459;53.044;8.910;2023-04-06T06:31:45;19.40;;;12.32;;
33094;SDS011;19459;53.044;8.910;2023-04-06T06:34:11;16.33;;;11.50;;
33094;SDS011;19459;53.044;8.910;2023-04-06T06:36:38;17.95;;;11.65;;
33094;SDS011;19459;53.044;8.910;2023-04-06T06:39:03;17.38;;;11.90;;
33094;SDS011;19459;53.044;8.910;2023-04-06T06:41:29;16.40;;;11.30;;
33094;SDS011;19459;53.044;8.910;2023-04-06T06:43:55;13.73;;;11.13;;
33094;SDS011;19459;53.044;8.910;2023-04-06T06:46:21;17.95;;;11.52;;
33094;SDS011;19459;53.044;8.910;2023-04-06T06:48:47;14.63;;;10.32;;
33094;SDS011;19459;53.044;8.910;2023-04-06T06:51:13;15.95;;;10.60;;
33094;SDS011;19459;53.044;8.910;2023-04-06T06:53:38;22.60;;;11.02;;
33094;SDS011;19459;53.044;8.910;2023-04-06T06:56:04;16.13;;;10.80;;
33094;SDS011;19459;53.044;8.910;2023-04-06T06:58:30;19.25;;;10.57;;
33094;SDS011;19459;53.044;8.910;2023-04-06T07:00:56;17.27;;;10.77;;
33094;SDS011;19459;53.044;8.910;2023-04-06T07:03:23;15.05;;;11.23;;
33094;SDS011;19459;53.044;8.910;2023-04-06T07:05:49;16.85;;;10.85;;
33094;SDS011;19459;53.044;8.910;2023-04-06T07:08:19;14.40;;;10.70;;
33094;SDS011;19459;53.044;8.910;2023-04-06T07:10:49;14.20;;;10.20;;
33094;SDS011;19459;53.044;8.910;2023-04-06T07:13:22;18.95;;;10.32;;
33094;SDS011;19459;53.044;8.910;2023-04-06T07:15:49;16.70;;;10.98;;
33094;SDS011;19459;53.044;8.910;2023-04-06T07:18:16;15.82;;;10.88;;
33094;SDS011;19459;53.044;8.910;2023-04-06T07:20:42;13.65;;;10.20;;
33094;SDS011;19459;53.044;8.910;2023-04-06T07:23:08;16.88;;;10.85;;
33094;SDS011;19459;53.044;8.910;2023-04-06T07:25:37;16.73;;;10.35;;
33094;SDS011;19459;53.044;8.910;2023-04-06T07:28:03;14.38;;;9.75;;
33094;SDS011;19459;53.044;8.910;2023-04-06T07:30:29;16.92;;;10.30;;
33094;SDS011;19459;53.044;8.910;2023-04-06T07:32:58;22.23;;;10.73;;
33094;SDS011;19459;53.044;8.910;2023-04-06T07:35:24;17.48;;;10.82;;
33094;SDS011;19459;53.044;8.910;2023-04-06T07:37:52;15.55;;;9.73;;
33094;SDS011;19459;53.044;8.910;2023-04-06T07:40:18;11.77;;;8.98;;
33094;SDS011;19459;53.044;8.910;2023-04-06T07:42:44;15.85;;;9.75;;
33094;SDS011;19459;53.044;8.910;2023-04-06T07:45:11;14.18;;;9.85;;
33094;SDS011;19459;53.044;8.910;2023-04-06T07:47:37;14.52;;;9.57;;
33094;SDS011;19459;53.044;8.910;2023-04-06T07:50:03;18.63;;;9.45;;
33094;SDS011;19459;53.044;8.910;2023-04-06T07:52:30;18.23;;;9.70;;
33094;SDS011;19459;53.044;8.910;2023-04-06T07:54:57;17.08;;;10.15;;
33094;SDS011;19459;53.044;8.910;2023-04-06T07:57:23;15.27;;;9.55;;
33094;SDS011;19459;53.044;8.910;2023-04-06T07:59:49;13.57;;;9.95;;
33094;SDS011;19459;53.044;8.910;2023-04-06T08:02:15;15.38;;;9.55;;
33094;SDS011;19459;53.044;8.910;2023-04-06T08:04:41;12.35;;;9.48;;
33094;SDS011;19459;53.044;8.910;2023-04-06T08:07:08;12.35;;;9.25;;
33094;SDS011;19459;53.044;8.910;2023-04-06T08:09:34;13.13;;;9.60;;
33094;SDS011;19459;53.044;8.910;2023-04-06T08:12:00;11.77;;;8.70;;
33094;SDS011;19459;53.044;8.910;2023-04-06T08:14:26;14.48;;;9.77;;
33094;SDS011;19459;53.044;8.910;2023-04-06T08:16:52;16.30;;;9.23;;
33094;SDS011;19459;53.044;8.910;2023-04-06T08:19:18;15.02;;;9.00;;
33094;SDS011;19459;53.044;8.910;2023-04-06T08:21:44;13.55;;;9.52;;
33094;SDS011;19459;53.044;8.910;2023-04-06T08:24:14;15.35;;;8.73;;
33094;SDS011;19459;53.044;8.910;2023-04-06T08:26:40;13.90;;;8.70;;
33094;SDS011;19459;53.044;8.910;2023-04-06T08:29:06;15.05;;;9.35;;
33094;SDS011;19459;53.044;8.910;2023-04-06T08:31:35;13.07;;;9.15;;
33094;SDS011;19459;53.044;8.910;2023-04-06T08:34:03;14.25;;;9.50;;
33094;SDS011;19459;53.044;8.910;2023-04-06T08:36:30;15.80;;;9.27;;
33094;SDS011;19459;53.044;8.910;2023-04-06T08:38:56;12.70;;;8.75;;
33094;SDS011;19459;53.044;8.910;2023-04-06T08:41:22;13.75;;;9.38;;
33094;SDS011;19459;53.044;8.910;2023-04-06T08:43:49;13.55;;;8.88;;
33094;SDS011;19459;53.044;8.910;2023-04-06T08:46:20;15.23;;;8.48;;
33094;SDS011;19459;53.044;8.910;2023-04-06T08:48:46;15.98;;;8.45;;
33094;SDS011;19459;53.044;8.910;2023-04-06T08:51:15;12.50;;;8.75;;
33094;SDS011;19459;53.044;8.910;2023-04-06T08:53:41;18.00;;;9.20;;
33094;SDS011;19459;53.044;8.910;2023-04-06T08:56:06;14.13;;;9.48;;
33094;SDS011;19459;53.044;8.910;2023-04-06T08:58:35;14.90;;;9.68;;
33094;SDS011;19459;53.044;8.910;2023-04-06T09:01:06;15.15;;;8.32;;
33094;SDS011;19459;53.044;8.910;2023-04-06T09:03:37;11.88;;;9.05;;
33094;SDS011;19459;53.044;8.910;2023-04-06T09:06:05;13.63;;;8.75;;
33094;SDS011;19459;53.044;8.910;2023-04-06T09:08:35;12.90;;;8.93;;
33094;SDS011;19459;53.044;8.910;2023-04-06T09:11:05;11.77;;;7.97;;
33094;SDS011;19459;53.044;8.910;2023-04-06T09:13:31;13.40;;;9.55;;
33094;SDS011;19459;53.044;8.910;2023-04-06T09:16:20;15.45;;;9.35;;
33094;SDS011;19459;53.044;8.910;2023-04-06T09:18:46;13.98;;;8.85;;
33094;SDS011;19459;53.044;8.910;2023-04-06T09:21:13;14.25;;;8.20;;
33094;SDS011;19459;53.044;8.910;2023-04-06T09:23:43;12.35;;;8.15;;
33094;SDS011;19459;53.044;8.910;2023-04-06T09:26:16;11.52;;;9.30;;
33094;SDS011;19459;53.044;8.910;2023-04-06T09:28:56;13.35;;;9.63;;
33094;SDS011;19459;53.044;8.910;2023-04-06T09:31:25;15.95;;;9.52;;
33094;SDS011;19459;53.044;8.910;2023-04-06T09:33:54;13.82;;;8.18;;
33094;SDS011;19459;53.044;8.910;2023-04-06T09:36:34;13.18;;;8.88;;
33094;SDS011;19459;53.044;8.910;2023-04-06T09:39:06;13.00;;;8.70;;
33094;SDS011;19459;53.044;8.910;2023-04-06T09:41:35;14.02;;;9.05;;
33094;SDS011;19459;53.044;8.910;2023-04-06T09:44:11;10.57;;;8.07;;
33094;SDS011;19459;53.044;8.910;2023-04-06T09:46:38;14.63;;;9.05;;
33094;SDS011;19459;53.044;8.910;2023-04-06T09:49:07;18.20;;;9.70;;
33094;SDS011;19459;53.044;8.910;2023-04-06T09:51:38;12.20;;;8.23;;
33094;SDS011;19459;53.044;8.910;2023-04-06T09:54:21;13.32;;;8.70;;
33094;SDS011;19459;53.044;8.910;2023-04-06T09:56:54;22.98;;;8.07;;
33094;SDS011;19459;53.044;8.910;2023-04-06T10:02:41;16.35;;;9.23;;
33094;SDS011;19459;53.044;8.910;2023-04-06T10:08:11;13.43;;;8.88;;
33094;SDS011;19459;53.044;8.910;2023-04-06T10:10:38;17.92;;;9.63;;
33094;SDS011;19459;53.044;8.910;2023-04-06T10:13:05;16.55;;;9.73;;
33094;SDS011;19459;53.044;8.910;2023-04-06T10:15:32;12.52;;;9.00;;
33094;SDS011;19459;53.044;8.910;2023-04-06T10:17:59;12.85;;;9.60;;
33094;SDS011;19459;53.044;8.910;2023-04-06T10:20:27;14.20;;;10.00;;
33094;SDS011;19459;53.044;8.910;2023-04-06T10:25:55;11.63;;;9.38;;
33094;SDS011;19459;53.044;8.910;2023-04-06T10:28:23;13.55;;;10.02;;
33094;SDS011;19459;53.044;8.910;2023-04-06T10:30:56;12.77;;;9.35;;
33094;SDS011;19459;53.044;8.910;2023-04-06T10:33:26;21.02;;;9.55;;
33094;SDS011;19459;53.044;8.910;2023-04-06T10:35:54;35.28;;;11.73;;
33094;SDS011;19459;53.044;8.910;2023-04-06T10:38:20;15.32;;;10.18;;
33094;SDS011;19459;53.044;8.910;2023-04-06T10:41:03;16.13;;;10.13;;
33094;SDS011;19459;53.044;8.910;2023-04-06T10:43:32;18.17;;;10.30;;
33094;SDS011;19459;53.044;8.910;2023-04-06T10:46:03;13.65;;;10.60;;
33094;SDS011;19459;53.044;8.910;2023-04-06T10:48:43;14.07;;;9.85;;
33094;SDS011;19459;53.044;8.910;2023-04-06T10:51:15;13.75;;;10.48;;
33094;SDS011;19459;53.044;8.910;2023-04-06T10:53:43;14.48;;;10.25;;
33094;SDS011;19459;53.044;8.910;2023-04-06T10:56:14;15.77;;;10.48;;
33094;SDS011;19459;53.044;8.910;2023-04-06T10:58:48;16.75;;;10.82;;
33094;SDS011;19459;53.044;8.910;2023-04-06T11:01:17;15.95;;;10.73;;
33094;SDS011;19459;53.044;8.910;2023-04-06T11:03:47;16.52;;;10.50;;
33094;SDS011;19459;53.044;8.910;2023-04-06T11:06:21;16.73;;;11.15;;
33094;SDS011;19459;53.044;8.910;2023-04-06T11:08:52;15.52;;;10.10;;
33094;SDS011;19459;53.044;8.910;2023-04-06T11:11:20;13.85;;;9.57;;
33094;SDS011;19459;53.044;8.910;2023-04-06T11:13:52;18.73;;;11.23;;
33094;SDS011;19459;53.044;8.910;2023-04-06T11:18:58;20.23;;;11.23;;
33094;SDS011;19459;53.044;8.910;2023-04-06T11:21:32;16.15;;;10.90;;
33094;SDS011;19459;53.044;8.910;2023-04-06T11:24:19;19.02;;;10.65;;
33094;SDS011;19459;53.044;8.910;2023-04-06T11:26:47;16.05;;;10.38;;
33094;SDS011;19459;53.044;8.910;2023-04-06T11:29:23;15.68;;;10.07;;
33094;SDS011;19459;53.044;8.910;2023-04-06T11:31:59;15.27;;;10.68;;
33094;SDS011;19459;53.044;8.910;2023-04-06T11:34:32;14.60;;;9.63;;
33094;SDS011;19459;53.044;8.910;2023-04-06T11:37:09;15.05;;;10.80;;
33094;SDS011;19459;53.044;8.910;2023-04-06T11:42:06;18.25;;;10.57;;
33094;SDS011;19459;53.044;8.910;2023-04-06T11:44:36;15.73;;;10.38;;
33094;SDS011;19459;53.044;8.910;2023-04-06T11:47:10;16.00;;;10.52;;
33094;SDS011;19459;53.044;8.910;2023-04-06T11:49:38;16.20;;;10.90;;
33094;SDS011;19459;53.044;8.910;2023-04-06T11:54:42;15.80;;;10.52;;
33094;SDS011;19459;53.044;8.910;2023-04-06T11:57:08;16.77;;;11.30;;
33094;SDS011;19459;53.044;8.910;2023-04-06T11:59:34;17.02;;;11.30;;
33094;SDS011;19459;53.044;8.910;2023-04-06T12:02:04;19.85;;;11.18;;
33094;SDS011;19459;53.044;8.910;2023-04-06T12:04:30;19.20;;;10.93;;
33094;SDS011;19459;53.044;8.910;2023-04-06T12:06:57;18.08;;;10.48;;
33094;SDS011;19459;53.044;8.910;2023-04-06T12:09:23;19.05;;;10.85;;
33094;SDS011;19459;53.044;8.910;2023-04-06T12:11:49;16.63;;;11.30;;
33094;SDS011;19459;53.044;8.910;2023-04-06T12:14:15;18.27;;;10.65;;
33094;SDS011;19459;53.044;8.910;2023-04-06T12:16:41;17.40;;;11.25;;
33094;SDS011;19459;53.044;8.910;2023-04-06T12:19:07;16.90;;;11.15;;
33094;SDS011;19459;53.044;8.910;2023-04-06T12:21:36;14.13;;;10.45;;
33094;SDS011;19459;53.044;8.910;2023-04-06T12:24:02;13.93;;;10.75;;
33094;SDS011;19459;53.044;8.910;2023-04-06T12:26:29;16.15;;;10.82;;
33094;SDS011;19459;53.044;8.910;2023-04-06T12:28:56;18.88;;;11.85;;
33094;SDS011;19459;53.044;8.910;2023-04-06T12:31:28;16.50;;;11.15;;
33094;SDS011;19459;53.044;8.910;2023-04-06T12:33:53;17.58;;;11.77;;
33094;SDS011;19459;53.044;8.910;2023-04-06T12:36:19;19.05;;;12.05;;
33094;SDS011;19459;53.044;8.910;2023-04-06T12:38:49;15.80;;;11.60;;
33094;SDS011;19459;53.044;8.910;2023-04-06T12:41:16;17.80;;;11.30;;
33094;SDS011;19459;53.044;8.910;2023-04-06T12:43:43;17.23;;;11.10;;
33094;SDS011;19459;53.044;8.910;2023-04-06T12:46:09;19.67;;;10.57;;
33094;SDS011;19459;53.044;8.910;2023-04-06T12:48:36;15.93;;;10.63;;
33094;SDS011;19459;53.044;8.910;2023-04-06T12:51:03;18.75;;;12.23;;
33094;SDS011;19459;53.044;8.910;2023-04-06T12:53:31;15.63;;;9.93;;
33094;SDS011;19459;53.044;8.910;2023-04-06T12:55:58;16.52;;;10.30;;
33094;SDS011;19459;53.044;8.910;2023-04-06T12:58:24;14.38;;;10.45;;
33094;SDS011;19459;53.044;8.910;2023-04-06T13:00:51;14.45;;;10.75;;
33094;SDS011;19459;53.044;8.910;2023-04-06T13:03:20;14.63;;;10.15;;
33094;SDS011;19459;53.044;8.910;2023-04-06T13:05:47;21.75;;;10.88;;
33094;SDS011;19459;53.044;8.910;2023-04-06T13:08:17;18.17;;;11.45;;
33094;SDS011;19459;53.044;8.910;2023-04-06T13:10:48;17.42;;;11.30;;
33094;SDS011;19459;53.044;8.910;2023-04-06T13:13:17;19.90;;;12.80;;
33094;SDS011;19459;53.044;8.910;2023-04-06T13:15:51;20.60;;;11.70;;
33094;SDS011;19459;53.044;8.910;2023-04-06T13:18:18;24.10;;;11.25;;
33094;SDS011;19459;53.044;8.910;2023-04-06T13:20:46;17.75;;;10.75;;
33094;SDS011;19459;53.044;8.910;2023-04-06T13:23:13;18.52;;;11.23;;
33094;SDS011;19459;53.044;8.910;2023-04-06T13:25:40;20.05;;;13.60;;
33094;SDS011;19459;53.044;8.910;2023-04-06T13:28:07;20.35;;;12.82;;
33094;SDS011;19459;53.044;8.910;2023-04-06T13:30:35;17.65;;;11.73;;
33094;SDS011;19459;53.044;8.910;2023-04-06T13:33:03;15.88;;;12.02;;
33094;SDS011;19459;53.044;8.910;2023-04-06T13:35:31;19.77;;;13.13;;
33094;SDS011;19459;53.044;8.910;2023-04-06T13:37:58;18.33;;;12.48;;
33094;SDS011;19459;53.044;8.910;2023-04-06T13:40:24;15.30;;;9.55;;
33094;SDS011;19459;53.044;8.910;2023-04-06T13:42:50;14.50;;;10.00;;
33094;SDS011;19459;53.044;8.910;2023-04-06T13:45:16;17.50;;;9.15;;
33094;SDS011;19459;53.044;8.910;2023-04-06T13:47:42;12.88;;;9.95;;
33094;SDS011;19459;53.044;8.910;2023-04-06T13:50:08;16.30;;;10.70;;
33094;SDS011;19459;53.044;8.910;2023-04-06T13:52:34;16.33;;;10.68;;
33094;SDS011;19459;53.044;8.910;2023-04-06T13:55:01;14.68;;;10.15;;
33094;SDS011;19459;53.044;8.910;2023-04-06T13:57:27;17.35;;;11.90;;
33094;SDS011;19459;53.044;8.910;2023-04-06T13:59:54;15.45;;;9.85;;
33094;SDS011;19459;53.044;8.910;2023-04-06T14:02:20;14.60;;;10.38;;
33094;SDS011;19459;53.044;8.910;2023-04-06T14:04:51;18.27;;;11.45;;
33094;SDS011;19459;53.044;8.910;2023-04-06T14:07:20;18.35;;;12.40;;
33094;SDS011;19459;53.044;8.910;2023-04-06T14:09:47;18.33;;;12.18;;
33094;SDS011;19459;53.044;8.910;2023-04-06T14:12:12;14.07;;;10.15;;
33094;SDS011;19459;53.044;8.910;2023-04-06T14:14:38;26.88;;;14.30;;
33094;SDS011;19459;53.044;8.910;2023-04-06T14:17:04;20.63;;;12.43;;
33094;SDS011;19459;53.044;8.910;2023-04-06T14:19:30;23.35;;;12.18;;
33094;SDS011;19459;53.044;8.910;2023-04-06T14:21:56;18.95;;;12.00;;
33094;SDS011;19459;53.044;8.910;2023-04-06T14:24:22;20.52;;;11.30;;
33094;SDS011;19459;53.044;8.910;2023-04-06T14:26:48;28.50;;;14.13;;
33094;SDS011;19459;53.044;8.910;2023-04-06T14:29:14;17.85;;;12.90;;
33094;SDS011;19459;53.044;8.910;2023-04-06T14:31:40;17.23;;;11.32;;
33094;SDS011;19459;53.044;8.910;2023-04-06T14:34:06;17.60;;;11.18;;
33094;SDS011;19459;53.044;8.910;2023-04-06T14:36:32;18.33;;;10.98;;
33094;SDS011;19459;53.044;8.910;2023-04-06T14:39:05;17.60;;;10.90;;
33094;SDS011;19459;53.044;8.910;2023-04-06T14:41:32;19.88;;;12.25;;